SANT/TUC METAR and TAF weather

Enter ICAO airport designator
Station Type Date Time Source
SANT METAR 2021/03/08 12:00 UTC NOAA

SANT 081200Z 32004KT CAVOK 23/21 Q1015


Station Type Date Time Source
SANT Decoded METAR 2021/03/08 12:00 UTC NOAA

Tucuman Aerodrome, Argentina (SANT) 26-51S 065-06W 450M
Mar 08, 2021 - 07:00 AM EST / 2021.03.08 1200 UTC
Wind: from the NW (320 degrees) at 5 MPH (4 KT):0
Visibility: greater than 7 mile(s):0
Temperature: 73 F (23 C)
Dew Point: 69 F (21 C)
Relative Humidity: 88%
Pressure (altimeter): 29.97 in. Hg (1015 hPa)
ob: SANT 081200Z 32004KT CAVOK 23/21 Q1015
cycle: 12

Station Type Date Time Source
SANT TAF 2021/03/08 12:24 UTC NOAA

TAF TAF SANT 081100Z 0812/0912 27005KT 5000 BR SCT030 FEW040TCU TX32/0818Z TN20/0909Z
BECMG 0814/0816 23005KT 9999 NSW SCT030 FEW040TCU
BECMG 0817/0820 18010KT 5000 TSRA BKN020 FEW030CB
BECMG 0902/0905 36005KT 9999 NSW BKN025 BKN060

Example: see airport list